sensor_id;sensor_type;location;lat;lon;timestamp;P1;durP1;ratioP1;P2;durP2;ratioP2
20828;SDS011;10575;50.124;8.582;2022-12-29T00:01:23;6.05;;;2.50;;
20828;SDS011;10575;50.124;8.582;2022-12-29T00:03:48;4.78;;;2.92;;
20828;SDS011;10575;50.124;8.582;2022-12-29T00:06:14;4.90;;;2.80;;
20828;SDS011;10575;50.124;8.582;2022-12-29T00:08:39;6.45;;;2.67;;
20828;SDS011;10575;50.124;8.582;2022-12-29T00:11:06;4.95;;;2.63;;
20828;SDS011;10575;50.124;8.582;2022-12-29T00:13:36;6.55;;;2.47;;
20828;SDS011;10575;50.124;8.582;2022-12-29T00:16:21;5.90;;;3.13;;
20828;SDS011;10575;50.124;8.582;2022-12-29T00:18:46;6.70;;;2.50;;
20828;SDS011;10575;50.124;8.582;2022-12-29T00:21:19;4.80;;;2.92;;
20828;SDS011;10575;50.124;8.582;2022-12-29T00:24:05;4.78;;;2.95;;
20828;SDS011;10575;50.124;8.582;2022-12-29T00:29:52;4.38;;;2.65;;
20828;SDS011;10575;50.124;8.582;2022-12-29T00:32:36;6.07;;;2.80;;
20828;SDS011;10575;50.124;8.582;2022-12-29T00:35:25;6.57;;;2.78;;
20828;SDS011;10575;50.124;8.582;2022-12-29T00:37:51;4.65;;;2.85;;
20828;SDS011;10575;50.124;8.582;2022-12-29T00:40:36;5.18;;;2.80;;
20828;SDS011;10575;50.124;8.582;2022-12-29T00:43:20;8.15;;;2.80;;
20828;SDS011;10575;50.124;8.582;2022-12-29T00:46:04;6.75;;;2.88;;
20828;SDS011;10575;50.124;8.582;2022-12-29T00:48:30;4.80;;;2.70;;
20828;SDS011;10575;50.124;8.582;2022-12-29T00:51:14;5.22;;;2.83;;
20828;SDS011;10575;50.124;8.582;2022-12-29T00:53:40;5.38;;;2.95;;
20828;SDS011;10575;50.124;8.582;2022-12-29T00:56:05;4.32;;;2.60;;
20828;SDS011;10575;50.124;8.582;2022-12-29T00:58:31;5.03;;;2.17;;
20828;SDS011;10575;50.124;8.582;2022-12-29T01:01:00;4.47;;;2.67;;
20828;SDS011;10575;50.124;8.582;2022-12-29T01:03:27;4.38;;;2.47;;
20828;SDS011;10575;50.124;8.582;2022-12-29T01:05:52;6.55;;;2.28;;
20828;SDS011;10575;50.124;8.582;2022-12-29T01:08:18;3.13;;;2.28;;
20828;SDS011;10575;50.124;8.582;2022-12-29T01:10:43;4.28;;;2.22;;
20828;SDS011;10575;50.124;8.582;2022-12-29T01:13:09;3.38;;;2.40;;
20828;SDS011;10575;50.124;8.582;2022-12-29T01:15:34;4.85;;;2.20;;
20828;SDS011;10575;50.124;8.582;2022-12-29T01:18:00;3.30;;;2.10;;
20828;SDS011;10575;50.124;8.582;2022-12-29T01:20:25;4.57;;;2.47;;
20828;SDS011;10575;50.124;8.582;2022-12-29T01:22:52;4.07;;;2.25;;
20828;SDS011;10575;50.124;8.582;2022-12-29T01:25:18;4.65;;;2.00;;
20828;SDS011;10575;50.124;8.582;2022-12-29T01:27:43;3.53;;;2.42;;
20828;SDS011;10575;50.124;8.582;2022-12-29T01:30:09;8.10;;;2.45;;
20828;SDS011;10575;50.124;8.582;2022-12-29T01:32:35;3.58;;;2.08;;
20828;SDS011;10575;50.124;8.582;2022-12-29T01:35:00;5.15;;;2.40;;
20828;SDS011;10575;50.124;8.582;2022-12-29T01:37:26;2.83;;;1.83;;
20828;SDS011;10575;50.124;8.582;2022-12-29T01:39:51;4.88;;;2.47;;
20828;SDS011;10575;50.124;8.582;2022-12-29T01:42:19;3.58;;;2.05;;
20828;SDS011;10575;50.124;8.582;2022-12-29T01:44:51;3.30;;;2.22;;
20828;SDS011;10575;50.124;8.582;2022-12-29T01:49:54;4.72;;;2.13;;
20828;SDS011;10575;50.124;8.582;2022-12-29T01:52:22;5.00;;;2.25;;
20828;SDS011;10575;50.124;8.582;2022-12-29T01:54:52;4.40;;;2.22;;
20828;SDS011;10575;50.124;8.582;2022-12-29T01:57:21;4.38;;;2.30;;
20828;SDS011;10575;50.124;8.582;2022-12-29T01:59:53;3.30;;;2.17;;
20828;SDS011;10575;50.124;8.582;2022-12-29T02:02:23;5.35;;;2.20;;
20828;SDS011;10575;50.124;8.582;2022-12-29T02:04:49;5.57;;;1.92;;
20828;SDS011;10575;50.124;8.582;2022-12-29T02:07:17;4.03;;;2.13;;
20828;SDS011;10575;50.124;8.582;2022-12-29T02:09:48;5.20;;;2.10;;
20828;SDS011;10575;50.124;8.582;2022-12-29T02:12:16;6.65;;;2.35;;
20828;SDS011;10575;50.124;8.582;2022-12-29T02:14:43;5.63;;;2.05;;
20828;SDS011;10575;50.124;8.582;2022-12-29T02:22:16;4.00;;;2.05;;
20828;SDS011;10575;50.124;8.582;2022-12-29T02:25:06;4.65;;;2.30;;
20828;SDS011;10575;50.124;8.582;2022-12-29T02:30:56;5.20;;;2.22;;
20828;SDS011;10575;50.124;8.582;2022-12-29T02:36:30;4.32;;;2.30;;
20828;SDS011;10575;50.124;8.582;2022-12-29T02:39:07;3.72;;;1.63;;
20828;SDS011;10575;50.124;8.582;2022-12-29T02:41:49;2.65;;;2.13;;
20828;SDS011;10575;50.124;8.582;2022-12-29T02:44:42;4.35;;;2.35;;
20828;SDS011;10575;50.124;8.582;2022-12-29T02:47:16;7.97;;;1.73;;
20828;SDS011;10575;50.124;8.582;2022-12-29T02:49:56;3.60;;;2.00;;
20828;SDS011;10575;50.124;8.582;2022-12-29T02:52:27;2.30;;;2.00;;
20828;SDS011;10575;50.124;8.582;2022-12-29T02:54:59;4.38;;;1.80;;
20828;SDS011;10575;50.124;8.582;2022-12-29T02:59:55;4.50;;;2.63;;
20828;SDS011;10575;50.124;8.582;2022-12-29T03:05:17;2.88;;;2.05;;
20828;SDS011;10575;50.124;8.582;2022-12-29T03:07:55;3.60;;;1.40;;
20828;SDS011;10575;50.124;8.582;2022-12-29T03:13:59;2.92;;;1.52;;
20828;SDS011;10575;50.124;8.582;2022-12-29T03:16:59;2.85;;;1.40;;
20828;SDS011;10575;50.124;8.582;2022-12-29T03:19:38;2.30;;;1.50;;
20828;SDS011;10575;50.124;8.582;2022-12-29T03:22:13;3.58;;;1.50;;
20828;SDS011;10575;50.124;8.582;2022-12-29T03:25:01;1.75;;;1.42;;
20828;SDS011;10575;50.124;8.582;2022-12-29T03:27:31;2.42;;;1.17;;
20828;SDS011;10575;50.124;8.582;2022-12-29T03:30:03;5.40;;;1.50;;
20828;SDS011;10575;50.124;8.582;2022-12-29T03:32:47;1.30;;;1.20;;
20828;SDS011;10575;50.124;8.582;2022-12-29T03:35:17;2.58;;;1.65;;
20828;SDS011;10575;50.124;8.582;2022-12-29T03:38:30;3.92;;;1.60;;
20828;SDS011;10575;50.124;8.582;2022-12-29T03:40:41;6.82;;;1.83;;
20828;SDS011;10575;50.124;8.582;2022-12-29T03:43:10;7.20;;;2.15;;
20828;SDS011;10575;50.124;8.582;2022-12-29T03:45:37;2.75;;;1.90;;
20828;SDS011;10575;50.124;8.582;2022-12-29T03:48:03;5.03;;;1.80;;
20828;SDS011;10575;50.124;8.582;2022-12-29T03:50:28;6.32;;;1.60;;
20828;SDS011;10575;50.124;8.582;2022-12-29T03:52:54;4.50;;;1.60;;
20828;SDS011;10575;50.124;8.582;2022-12-29T03:55:19;3.25;;;1.73;;
20828;SDS011;10575;50.124;8.582;2022-12-29T03:57:45;4.10;;;1.70;;
20828;SDS011;10575;50.124;8.582;2022-12-29T04:00:11;2.88;;;1.73;;
20828;SDS011;10575;50.124;8.582;2022-12-29T04:02:37;2.55;;;1.73;;
20828;SDS011;10575;50.124;8.582;2022-12-29T04:05:02;2.20;;;1.60;;
20828;SDS011;10575;50.124;8.582;2022-12-29T04:07:28;3.33;;;2.00;;
20828;SDS011;10575;50.124;8.582;2022-12-29T04:09:54;2.80;;;1.73;;
20828;SDS011;10575;50.124;8.582;2022-12-29T04:12:19;1.80;;;1.42;;
20828;SDS011;10575;50.124;8.582;2022-12-29T04:14:45;3.13;;;2.05;;
20828;SDS011;10575;50.124;8.582;2022-12-29T04:17:10;4.00;;;1.48;;
20828;SDS011;10575;50.124;8.582;2022-12-29T04:19:36;3.80;;;1.60;;
20828;SDS011;10575;50.124;8.582;2022-12-29T04:22:01;5.10;;;1.90;;
20828;SDS011;10575;50.124;8.582;2022-12-29T04:24:27;3.00;;;1.63;;
20828;SDS011;10575;50.124;8.582;2022-12-29T04:26:52;4.50;;;2.08;;
20828;SDS011;10575;50.124;8.582;2022-12-29T04:29:18;5.75;;;2.00;;
20828;SDS011;10575;50.124;8.582;2022-12-29T04:31:43;3.42;;;1.73;;
20828;SDS011;10575;50.124;8.582;2022-12-29T04:34:09;5.75;;;2.13;;
20828;SDS011;10575;50.124;8.582;2022-12-29T04:36:34;3.80;;;1.70;;
20828;SDS011;10575;50.124;8.582;2022-12-29T04:39:00;3.13;;;1.85;;
20828;SDS011;10575;50.124;8.582;2022-12-29T04:41:25;3.60;;;1.90;;
20828;SDS011;10575;50.124;8.582;2022-12-29T04:43:51;4.13;;;1.90;;
20828;SDS011;10575;50.124;8.582;2022-12-29T04:46:17;4.20;;;1.90;;
20828;SDS011;10575;50.124;8.582;2022-12-29T04:48:42;4.53;;;2.10;;
20828;SDS011;10575;50.124;8.582;2022-12-29T04:51:08;2.92;;;1.75;;
20828;SDS011;10575;50.124;8.582;2022-12-29T04:53:33;3.35;;;1.90;;
20828;SDS011;10575;50.124;8.582;2022-12-29T04:55:59;4.35;;;2.00;;
20828;SDS011;10575;50.124;8.582;2022-12-29T04:58:24;4.03;;;1.73;;
20828;SDS011;10575;50.124;8.582;2022-12-29T05:00:50;3.65;;;1.77;;
20828;SDS011;10575;50.124;8.582;2022-12-29T05:03:16;5.30;;;2.33;;
20828;SDS011;10575;50.124;8.582;2022-12-29T05:05:42;4.55;;;1.85;;
20828;SDS011;10575;50.124;8.582;2022-12-29T05:08:08;4.38;;;1.48;;
20828;SDS011;10575;50.124;8.582;2022-12-29T05:10:33;5.07;;;2.00;;
20828;SDS011;10575;50.124;8.582;2022-12-29T05:12:59;3.45;;;1.67;;
20828;SDS011;10575;50.124;8.582;2022-12-29T05:15:24;6.22;;;1.63;;
20828;SDS011;10575;50.124;8.582;2022-12-29T05:17:50;2.75;;;1.75;;
20828;SDS011;10575;50.124;8.582;2022-12-29T05:20:16;5.50;;;1.83;;
20828;SDS011;10575;50.124;8.582;2022-12-29T05:22:41;3.78;;;2.00;;
20828;SDS011;10575;50.124;8.582;2022-12-29T05:25:07;5.22;;;1.98;;
20828;SDS011;10575;50.124;8.582;2022-12-29T05:27:33;3.95;;;2.13;;
20828;SDS011;10575;50.124;8.582;2022-12-29T05:29:59;2.70;;;1.60;;
20828;SDS011;10575;50.124;8.582;2022-12-29T05:32:24;3.97;;;1.63;;
20828;SDS011;10575;50.124;8.582;2022-12-29T05:34:50;1.88;;;1.40;;
20828;SDS011;10575;50.124;8.582;2022-12-29T05:37:15;3.50;;;1.70;;
20828;SDS011;10575;50.124;8.582;2022-12-29T05:39:41;2.45;;;1.40;;
20828;SDS011;10575;50.124;8.582;2022-12-29T05:42:06;3.17;;;1.60;;
20828;SDS011;10575;50.124;8.582;2022-12-29T05:44:32;5.43;;;1.90;;
20828;SDS011;10575;50.124;8.582;2022-12-29T05:46:57;4.00;;;1.58;;
20828;SDS011;10575;50.124;8.582;2022-12-29T05:49:23;5.80;;;1.60;;
20828;SDS011;10575;50.124;8.582;2022-12-29T05:51:48;4.57;;;1.75;;
20828;SDS011;10575;50.124;8.582;2022-12-29T05:54:14;4.55;;;1.80;;
20828;SDS011;10575;50.124;8.582;2022-12-29T05:56:40;3.28;;;1.85;;
20828;SDS011;10575;50.124;8.582;2022-12-29T05:59:05;2.97;;;1.63;;
20828;SDS011;10575;50.124;8.582;2022-12-29T06:01:31;3.97;;;1.70;;
20828;SDS011;10575;50.124;8.582;2022-12-29T06:03:58;2.42;;;1.65;;
20828;SDS011;10575;50.124;8.582;2022-12-29T06:06:23;1.90;;;1.45;;
20828;SDS011;10575;50.124;8.582;2022-12-29T06:08:49;3.17;;;1.58;;
20828;SDS011;10575;50.124;8.582;2022-12-29T06:11:14;3.22;;;1.70;;
20828;SDS011;10575;50.124;8.582;2022-12-29T06:13:40;2.72;;;1.80;;
20828;SDS011;10575;50.124;8.582;2022-12-29T06:16:05;3.50;;;1.95;;
20828;SDS011;10575;50.124;8.582;2022-12-29T06:18:31;3.63;;;1.60;;
20828;SDS011;10575;50.124;8.582;2022-12-29T06:21:00;4.20;;;2.08;;
20828;SDS011;10575;50.124;8.582;2022-12-29T06:23:27;3.55;;;1.98;;
20828;SDS011;10575;50.124;8.582;2022-12-29T06:25:52;5.43;;;2.00;;
20828;SDS011;10575;50.124;8.582;2022-12-29T06:28:18;3.72;;;1.80;;
20828;SDS011;10575;50.124;8.582;2022-12-29T06:30:44;3.85;;;1.70;;
20828;SDS011;10575;50.124;8.582;2022-12-29T06:33:10;2.22;;;1.73;;
20828;SDS011;10575;50.124;8.582;2022-12-29T06:35:36;2.65;;;1.67;;
20828;SDS011;10575;50.124;8.582;2022-12-29T06:38:02;2.05;;;1.60;;
20828;SDS011;10575;50.124;8.582;2022-12-29T06:40:27;3.90;;;1.63;;
20828;SDS011;10575;50.124;8.582;2022-12-29T06:42:53;6.90;;;2.35;;
20828;SDS011;10575;50.124;8.582;2022-12-29T06:45:18;2.50;;;1.58;;
20828;SDS011;10575;50.124;8.582;2022-12-29T06:47:44;3.03;;;1.75;;
20828;SDS011;10575;50.124;8.582;2022-12-29T06:50:09;4.22;;;2.15;;
20828;SDS011;10575;50.124;8.582;2022-12-29T06:52:35;7.18;;;2.17;;
20828;SDS011;10575;50.124;8.582;2022-12-29T06:55:00;6.07;;;1.98;;
20828;SDS011;10575;50.124;8.582;2022-12-29T06:57:26;4.22;;;1.92;;
20828;SDS011;10575;50.124;8.582;2022-12-29T06:59:52;3.80;;;1.83;;
20828;SDS011;10575;50.124;8.582;2022-12-29T07:02:20;3.97;;;1.70;;
20828;SDS011;10575;50.124;8.582;2022-12-29T07:04:46;4.82;;;2.00;;
20828;SDS011;10575;50.124;8.582;2022-12-29T07:07:11;3.50;;;2.25;;
20828;SDS011;10575;50.124;8.582;2022-12-29T07:09:37;5.75;;;2.05;;
20828;SDS011;10575;50.124;8.582;2022-12-29T07:12:03;5.50;;;2.15;;
20828;SDS011;10575;50.124;8.582;2022-12-29T07:14:28;4.05;;;2.20;;
20828;SDS011;10575;50.124;8.582;2022-12-29T07:16:54;4.53;;;2.10;;
20828;SDS011;10575;50.124;8.582;2022-12-29T07:19:19;8.15;;;2.10;;
20828;SDS011;10575;50.124;8.582;2022-12-29T07:21:45;3.92;;;2.40;;
20828;SDS011;10575;50.124;8.582;2022-12-29T07:24:10;4.97;;;2.25;;
20828;SDS011;10575;50.124;8.582;2022-12-29T07:26:36;5.85;;;3.08;;
20828;SDS011;10575;50.124;8.582;2022-12-29T07:29:02;4.85;;;2.60;;
20828;SDS011;10575;50.124;8.582;2022-12-29T07:31:28;10.07;;;2.33;;
20828;SDS011;10575;50.124;8.582;2022-12-29T07:33:54;3.65;;;2.33;;
20828;SDS011;10575;50.124;8.582;2022-12-29T07:36:19;5.13;;;2.50;;
20828;SDS011;10575;50.124;8.582;2022-12-29T07:38:45;3.40;;;2.13;;
20828;SDS011;10575;50.124;8.582;2022-12-29T07:41:10;3.33;;;2.13;;
20828;SDS011;10575;50.124;8.582;2022-12-29T07:43:36;4.45;;;2.65;;
20828;SDS011;10575;50.124;8.582;2022-12-29T07:46:01;8.27;;;2.83;;
20828;SDS011;10575;50.124;8.582;2022-12-29T07:48:27;5.97;;;2.50;;
20828;SDS011;10575;50.124;8.582;2022-12-29T07:50:53;4.88;;;3.03;;
20828;SDS011;10575;50.124;8.582;2022-12-29T07:53:18;5.47;;;2.20;;
20828;SDS011;10575;50.124;8.582;2022-12-29T07:55:44;6.47;;;2.92;;
20828;SDS011;10575;50.124;8.582;2022-12-29T07:58:10;6.28;;;2.97;;
20828;SDS011;10575;50.124;8.582;2022-12-29T08:00:35;3.15;;;2.30;;
20828;SDS011;10575;50.124;8.582;2022-12-29T08:03:02;7.05;;;2.70;;
20828;SDS011;10575;50.124;8.582;2022-12-29T08:05:28;8.05;;;2.97;;
20828;SDS011;10575;50.124;8.582;2022-12-29T08:07:55;3.85;;;2.20;;
20828;SDS011;10575;50.124;8.582;2022-12-29T08:10:21;7.55;;;2.75;;
20828;SDS011;10575;50.124;8.582;2022-12-29T08:12:47;3.67;;;2.35;;
20828;SDS011;10575;50.124;8.582;2022-12-29T08:15:12;4.22;;;2.15;;
20828;SDS011;10575;50.124;8.582;2022-12-29T08:17:38;3.58;;;2.47;;
20828;SDS011;10575;50.124;8.582;2022-12-29T08:20:04;4.03;;;2.20;;
20828;SDS011;10575;50.124;8.582;2022-12-29T08:22:30;6.13;;;2.80;;
20828;SDS011;10575;50.124;8.582;2022-12-29T08:24:55;4.18;;;2.88;;
20828;SDS011;10575;50.124;8.582;2022-12-29T08:27:21;6.38;;;2.75;;
20828;SDS011;10575;50.124;8.582;2022-12-29T08:29:47;4.72;;;2.80;;
20828;SDS011;10575;50.124;8.582;2022-12-29T08:32:13;5.18;;;2.80;;
20828;SDS011;10575;50.124;8.582;2022-12-29T08:34:39;5.43;;;2.83;;
20828;SDS011;10575;50.124;8.582;2022-12-29T08:37:04;3.65;;;2.75;;
20828;SDS011;10575;50.124;8.582;2022-12-29T08:39:30;6.85;;;2.88;;
20828;SDS011;10575;50.124;8.582;2022-12-29T08:41:55;10.77;;;3.20;;
20828;SDS011;10575;50.124;8.582;2022-12-29T08:44:21;5.35;;;2.53;;
20828;SDS011;10575;50.124;8.582;2022-12-29T08:46:47;10.02;;;3.35;;
20828;SDS011;10575;50.124;8.582;2022-12-29T08:49:12;6.35;;;3.03;;
20828;SDS011;10575;50.124;8.582;2022-12-29T08:51:38;7.18;;;2.85;;
20828;SDS011;10575;50.124;8.582;2022-12-29T08:54:03;6.90;;;3.00;;
20828;SDS011;10575;50.124;8.582;2022-12-29T08:56:29;9.48;;;2.97;;
20828;SDS011;10575;50.124;8.582;2022-12-29T08:58:55;5.90;;;2.78;;
20828;SDS011;10575;50.124;8.582;2022-12-29T09:01:20;4.97;;;2.95;;
20828;SDS011;10575;50.124;8.582;2022-12-29T09:03:46;8.57;;;3.58;;
20828;SDS011;10575;50.124;8.582;2022-12-29T09:06:12;6.47;;;3.22;;
20828;SDS011;10575;50.124;8.582;2022-12-29T09:08:39;5.72;;;3.10;;
20828;SDS011;10575;50.124;8.582;2022-12-29T09:11:13;5.90;;;3.17;;
20828;SDS011;10575;50.124;8.582;2022-12-29T09:13:42;4.80;;;2.90;;
20828;SDS011;10575;50.124;8.582;2022-12-29T09:16:10;8.07;;;3.10;;
20828;SDS011;10575;50.124;8.582;2022-12-29T09:18:36;10.52;;;3.50;;
20828;SDS011;10575;50.124;8.582;2022-12-29T09:21:03;7.68;;;3.90;;
20828;SDS011;10575;50.124;8.582;2022-12-29T09:23:30;10.35;;;3.50;;
20828;SDS011;10575;50.124;8.582;2022-12-29T09:25:56;10.73;;;3.42;;
20828;SDS011;10575;50.124;8.582;2022-12-29T09:28:21;8.07;;;3.80;;
20828;SDS011;10575;50.124;8.582;2022-12-29T09:30:47;6.85;;;3.75;;
20828;SDS011;10575;50.124;8.582;2022-12-29T09:33:14;9.55;;;3.83;;
20828;SDS011;10575;50.124;8.582;2022-12-29T09:35:43;6.85;;;3.92;;
20828;SDS011;10575;50.124;8.582;2022-12-29T09:38:10;8.07;;;3.92;;
20828;SDS011;10575;50.124;8.582;2022-12-29T09:40:35;9.43;;;3.65;;
20828;SDS011;10575;50.124;8.582;2022-12-29T09:43:10;5.97;;;3.47;;
20828;SDS011;10575;50.124;8.582;2022-12-29T09:45:54;9.32;;;3.80;;
20828;SDS011;10575;50.124;8.582;2022-12-29T09:48:27;8.27;;;3.35;;
20828;SDS011;10575;50.124;8.582;2022-12-29T09:50:58;8.57;;;3.58;;
20828;SDS011;10575;50.124;8.582;2022-12-29T09:53:30;7.75;;;3.28;;
20828;SDS011;10575;50.124;8.582;2022-12-29T09:56:02;5.75;;;3.35;;
20828;SDS011;10575;50.124;8.582;2022-12-29T09:58:35;7.80;;;3.58;;
20828;SDS011;10575;50.124;8.582;2022-12-29T10:01:41;6.80;;;3.60;;
20828;SDS011;10575;50.124;8.582;2022-12-29T10:04:16;8.10;;;3.58;;
20828;SDS011;10575;50.124;8.582;2022-12-29T10:06:44;7.63;;;3.17;;
20828;SDS011;10575;50.124;8.582;2022-12-29T10:09:37;8.55;;;2.78;;
20828;SDS011;10575;50.124;8.582;2022-12-29T10:23:22;3.72;;;2.05;;
20828;SDS011;10575;50.124;8.582;2022-12-29T10:26:29;6.65;;;2.45;;
20828;SDS011;10575;50.124;8.582;2022-12-29T10:28:59;2.75;;;2.00;;
20828;SDS011;10575;50.124;8.582;2022-12-29T10:31:33;9.88;;;3.28;;
20828;SDS011;10575;50.124;8.582;2022-12-29T10:36:58;4.72;;;2.13;;
20828;SDS011;10575;50.124;8.582;2022-12-29T10:39:30;4.88;;;2.20;;
20828;SDS011;10575;50.124;8.582;2022-12-29T10:42:13;3.80;;;1.92;;
20828;SDS011;10575;50.124;8.582;2022-12-29T10:44:49;2.30;;;1.50;;
20828;SDS011;10575;50.124;8.582;2022-12-29T10:47:16;3.50;;;1.88;;
20828;SDS011;10575;50.124;8.582;2022-12-29T10:49:47;2.88;;;1.50;;
20828;SDS011;10575;50.124;8.582;2022-12-29T10:52:14;4.45;;;1.80;;
20828;SDS011;10575;50.124;8.582;2022-12-29T10:57:33;7.72;;;2.00;;
20828;SDS011;10575;50.124;8.582;2022-12-29T11:00:10;2.58;;;1.30;;
20828;SDS011;10575;50.124;8.582;2022-12-29T11:05:38;2.38;;;1.33;;
20828;SDS011;10575;50.124;8.582;2022-12-29T11:08:19;2.72;;;1.27;;
20828;SDS011;10575;50.124;8.582;2022-12-29T11:10:47;2.63;;;1.42;;
20828;SDS011;10575;50.124;8.582;2022-12-29T11:13:31;2.08;;;1.00;;
20828;SDS011;10575;50.124;8.582;2022-12-29T11:15:58;6.03;;;1.30;;
20828;SDS011;10575;50.124;8.582;2022-12-29T11:18:32;2.75;;;1.05;;
20828;SDS011;10575;50.124;8.582;2022-12-29T11:21:02;3.63;;;1.30;;
20828;SDS011;10575;50.124;8.582;2022-12-29T11:28:31;3.17;;;0.90;;
20828;SDS011;10575;50.124;8.582;2022-12-29T11:31:01;2.72;;;1.27;;
20828;SDS011;10575;50.124;8.582;2022-12-29T11:33:28;1.90;;;0.90;;
20828;SDS011;10575;50.124;8.582;2022-12-29T11:35:58;2.47;;;0.98;;
20828;SDS011;10575;50.124;8.582;2022-12-29T11:38:37;1.92;;;0.88;;
20828;SDS011;10575;50.124;8.582;2022-12-29T11:41:05;3.28;;;1.13;;
20828;SDS011;10575;50.124;8.582;2022-12-29T11:43:38;2.70;;;0.73;;
20828;SDS011;10575;50.124;8.582;2022-12-29T11:46:12;1.67;;;0.82;;
20828;SDS011;10575;50.124;8.582;2022-12-29T11:48:41;2.22;;;1.00;;
20828;SDS011;10575;50.124;8.582;2022-12-29T11:51:08;2.78;;;1.13;;
20828;SDS011;10575;50.124;8.582;2022-12-29T11:56:14;2.60;;;1.10;;
20828;SDS011;10575;50.124;8.582;2022-12-29T11:58:41;1.92;;;1.27;;
20828;SDS011;10575;50.124;8.582;2022-12-29T12:01:13;3.22;;;1.13;;
20828;SDS011;10575;50.124;8.582;2022-12-29T12:04:02;3.45;;;1.20;;
20828;SDS011;10575;50.124;8.582;2022-12-29T12:06:29;3.97;;;1.00;;
20828;SDS011;10575;50.124;8.582;2022-12-29T12:09:04;7.93;;;1.33;;
20828;SDS011;10575;50.124;8.582;2022-12-29T12:11:37;3.75;;;1.13;;
20828;SDS011;10575;50.124;8.582;2022-12-29T12:14:12;5.20;;;1.02;;
20828;SDS011;10575;50.124;8.582;2022-12-29T12:17:04;4.65;;;1.60;;
20828;SDS011;10575;50.124;8.582;2022-12-29T12:19:48;3.25;;;0.98;;
20828;SDS011;10575;50.124;8.582;2022-12-29T12:22:17;4.85;;;1.20;;
20828;SDS011;10575;50.124;8.582;2022-12-29T12:24:56;2.65;;;1.17;;
20828;SDS011;10575;50.124;8.582;2022-12-29T12:28:19;1.92;;;1.30;;
20828;SDS011;10575;50.124;8.582;2022-12-29T12:30:33;3.80;;;1.48;;
20828;SDS011;10575;50.124;8.582;2022-12-29T12:33:22;3.40;;;1.25;;
20828;SDS011;10575;50.124;8.582;2022-12-29T12:39:02;4.70;;;1.27;;
20828;SDS011;10575;50.124;8.582;2022-12-29T12:41:53;3.67;;;1.40;;
20828;SDS011;10575;50.124;8.582;2022-12-29T12:44:27;6.00;;;1.52;;
20828;SDS011;10575;50.124;8.582;2022-12-29T12:47:14;2.00;;;1.23;;
20828;SDS011;10575;50.124;8.582;2022-12-29T12:50:02;3.70;;;1.27;;
20828;SDS011;10575;50.124;8.582;2022-12-29T12:58:22;2.58;;;1.40;;
20828;SDS011;10575;50.124;8.582;2022-12-29T13:04:15;3.35;;;1.10;;
20828;SDS011;10575;50.124;8.582;2022-12-29T13:06:56;3.97;;;1.40;;
20828;SDS011;10575;50.124;8.582;2022-12-29T13:12:42;3.22;;;1.00;;
20828;SDS011;10575;50.124;8.582;2022-12-29T13:21:03;2.78;;;1.48;;
20828;SDS011;10575;50.124;8.582;2022-12-29T13:23:41;3.63;;;1.45;;
20828;SDS011;10575;50.124;8.582;2022-12-29T13:26:32;7.15;;;1.77;;
20828;SDS011;10575;50.124;8.582;2022-12-29T13:29:17;3.97;;;1.50;;
20828;SDS011;10575;50.124;8.582;2022-12-29T13:37:29;4.55;;;1.63;;
20828;SDS011;10575;50.124;8.582;2022-12-29T13:39:59;3.42;;;1.60;;
20828;SDS011;10575;50.124;8.582;2022-12-29T13:42:28;3.15;;;1.83;;
20828;SDS011;10575;50.124;8.582;2022-12-29T13:44:57;3.45;;;1.50;;
20828;SDS011;10575;50.124;8.582;2022-12-29T13:47:32;3.50;;;1.50;;
20828;SDS011;10575;50.124;8.582;2022-12-29T13:50:03;7.07;;;2.10;;
20828;SDS011;10575;50.124;8.582;2022-12-29T13:58:17;4.07;;;1.55;;
20828;SDS011;10575;50.124;8.582;2022-12-29T14:03:36;7.47;;;2.25;;
20828;SDS011;10575;50.124;8.582;2022-12-29T14:06:23;2.95;;;1.50;;
20828;SDS011;10575;50.124;8.582;2022-12-29T14:09:01;5.68;;;1.50;;
20828;SDS011;10575;50.124;8.582;2022-12-29T14:11:37;5.15;;;1.38;;
20828;SDS011;10575;50.124;8.582;2022-12-29T14:14:18;4.43;;;1.60;;
20828;SDS011;10575;50.124;8.582;2022-12-29T14:16:46;6.78;;;1.40;;
20828;SDS011;10575;50.124;8.582;2022-12-29T14:19:15;4.95;;;1.70;;
20828;SDS011;10575;50.124;8.582;2022-12-29T14:21:50;4.95;;;1.83;;
20828;SDS011;10575;50.124;8.582;2022-12-29T14:32:35;3.20;;;1.38;;
20828;SDS011;10575;50.124;8.582;2022-12-29T14:38:06;3.95;;;2.03;;
20828;SDS011;10575;50.124;8.582;2022-12-29T14:40:39;4.35;;;1.70;;
20828;SDS011;10575;50.124;8.582;2022-12-29T14:43:05;5.60;;;1.80;;
20828;SDS011;10575;50.124;8.582;2022-12-29T14:45:39;3.85;;;1.33;;
20828;SDS011;10575;50.124;8.582;2022-12-29T14:48:27;3.83;;;1.63;;
20828;SDS011;10575;50.124;8.582;2022-12-29T14:50:57;5.65;;;1.42;;
20828;SDS011;10575;50.124;8.582;2022-12-29T14:53:42;3.65;;;1.63;;
20828;SDS011;10575;50.124;8.582;2022-12-29T14:56:12;6.00;;;1.40;;
20828;SDS011;10575;50.124;8.582;2022-12-29T14:58:43;4.35;;;1.60;;
20828;SDS011;10575;50.124;8.582;2022-12-29T15:03:58;4.82;;;1.45;;
20828;SDS011;10575;50.124;8.582;2022-12-29T15:06:29;3.63;;;1.42;;
20828;SDS011;10575;50.124;8.582;2022-12-29T15:09:04;6.22;;;1.85;;
20828;SDS011;10575;50.124;8.582;2022-12-29T15:14:25;6.82;;;1.63;;
20828;SDS011;10575;50.124;8.582;2022-12-29T15:16:55;4.53;;;1.88;;
20828;SDS011;10575;50.124;8.582;2022-12-29T15:19:22;5.72;;;1.80;;
20828;SDS011;10575;50.124;8.582;2022-12-29T15:21:49;5.63;;;1.48;;
20828;SDS011;10575;50.124;8.582;2022-12-29T15:24:14;5.35;;;2.15;;
20828;SDS011;10575;50.124;8.582;2022-12-29T15:26:47;6.55;;;1.75;;
20828;SDS011;10575;50.124;8.582;2022-12-29T15:31:58;4.57;;;1.50;;
20828;SDS011;10575;50.124;8.582;2022-12-29T15:34:25;5.63;;;1.50;;
20828;SDS011;10575;50.124;8.582;2022-12-29T15:36:55;7.10;;;1.60;;
20828;SDS011;10575;50.124;8.582;2022-12-29T15:39:26;3.72;;;1.15;;
20828;SDS011;10575;50.124;8.582;2022-12-29T15:44:58;6.18;;;1.38;;
20828;SDS011;10575;50.124;8.582;2022-12-29T15:47:24;5.80;;;1.98;;
20828;SDS011;10575;50.124;8.582;2022-12-29T15:49:58;7.78;;;2.25;;
20828;SDS011;10575;50.124;8.582;2022-12-29T15:52:30;4.53;;;1.55;;
20828;SDS011;10575;50.124;8.582;2022-12-29T15:54:57;10.82;;;1.63;;
20828;SDS011;10575;50.124;8.582;2022-12-29T15:57:29;4.50;;;1.10;;
20828;SDS011;10575;50.124;8.582;2022-12-29T16:00:00;5.90;;;1.60;;
20828;SDS011;10575;50.124;8.582;2022-12-29T16:02:26;10.48;;;2.13;;
20828;SDS011;10575;50.124;8.582;2022-12-29T16:04:53;7.22;;;2.90;;
20828;SDS011;10575;50.124;8.582;2022-12-29T16:07:23;5.97;;;1.80;;
20828;SDS011;10575;50.124;8.582;2022-12-29T16:09:58;7.47;;;1.73;;
20828;SDS011;10575;50.124;8.582;2022-12-29T16:12:32;11.73;;;3.13;;
20828;SDS011;10575;50.124;8.582;2022-12-29T16:15:04;7.28;;;1.58;;
20828;SDS011;10575;50.124;8.582;2022-12-29T16:17:33;5.32;;;1.23;;
20828;SDS011;10575;50.124;8.582;2022-12-29T16:20:19;3.80;;;1.52;;
20828;SDS011;10575;50.124;8.582;2022-12-29T16:22:48;5.38;;;2.30;;
20828;SDS011;10575;50.124;8.582;2022-12-29T16:25:21;7.95;;;1.60;;
20828;SDS011;10575;50.124;8.582;2022-12-29T16:27:49;5.25;;;1.60;;
20828;SDS011;10575;50.124;8.582;2022-12-29T16:30:19;5.28;;;1.70;;
20828;SDS011;10575;50.124;8.582;2022-12-29T16:32:54;12.82;;;3.13;;
20828;SDS011;10575;50.124;8.582;2022-12-29T16:35:25;6.65;;;1.67;;
20828;SDS011;10575;50.124;8.582;2022-12-29T16:38:07;5.85;;;1.73;;
20828;SDS011;10575;50.124;8.582;2022-12-29T16:40:53;8.27;;;1.80;;
20828;SDS011;10575;50.124;8.582;2022-12-29T16:43:26;6.97;;;1.60;;
20828;SDS011;10575;50.124;8.582;2022-12-29T16:48:26;3.40;;;1.60;;
20828;SDS011;10575;50.124;8.582;2022-12-29T16:50:59;6.47;;;2.65;;
20828;SDS011;10575;50.124;8.582;2022-12-29T16:53:52;5.72;;;1.92;;
20828;SDS011;10575;50.124;8.582;2022-12-29T16:56:23;5.38;;;2.05;;
20828;SDS011;10575;50.124;8.582;2022-12-29T16:58:59;7.10;;;1.83;;
20828;SDS011;10575;50.124;8.582;2022-12-29T17:01:46;3.42;;;1.30;;